Time;durP1;ratioP1;P1;durP2;ratioP2;P2;SDS_P1;SDS_P2;PMS_P1;PMS_P2;Temp;Humidity;BMP_temperature;BMP_pressure;BME280_temperature;BME280_humidity;BME280_pressure;Samples;Min_cycle;Max_cycle;Signal;HPM_P1;HPM_P2
2022/05/05 00:01:05;;;;;;;6.10;2.50;;;;;;100958.98;;;;107238;1274;65672;-30
2022/05/05 00:03:33;;;;;;;6.10;3.00;;;;;;100963.27;;;;107238;1274;65990;-28
2022/05/05 00:06:03;;;;;;;5.60;2.50;;;;;;100963.13;;;;107141;1274;65669;-28
2022/05/05 00:08:30;;;;;;;5.30;2.50;;;;;;100959.84;;;;107222;1274;65596;-28
2022/05/05 00:16:45;;;;;;;4.80;2.30;;;;;;100955.54;;;;107243;1274;68240;-29
2022/05/05 00:19:15;;;;;;;6.20;2.70;;;;;;100957.52;;;;107214;1274;65717;-30
2022/05/05 00:21:42;;;;;;;4.10;2.10;;;;;;100955.91;;;;107237;1274;65695;-30
2022/05/05 00:24:12;;;;;;;4.60;2.30;;;;;;100952.60;;;;107201;1274;65701;-36
2022/05/05 00:26:43;;;;;;;5.00;2.20;;;;;;100952.05;;;;107173;1273;65579;-31
2022/05/05 00:29:11;;;;;;;5.40;2.50;;;;;;100946.90;;;;107256;1274;65585;-27
2022/05/05 00:31:38;;;;;;;5.40;2.30;;;;;;100943.05;;;;107275;1274;66233;-44
2022/05/05 00:34:09;;;;;;;5.70;2.60;;;;;;100943.40;;;;107214;1274;65566;-54
2022/05/05 00:36:36;;;;;;;5.30;2.50;;;;;;100950.48;;;;107225;1274;65713;-31
2022/05/05 00:39:05;;;;;;;4.50;2.40;;;;;;100956.17;;;;107270;1273;65675;-30
2022/05/05 00:41:41;;;;;;;5.10;2.20;;;;;;100961.64;;;;107265;1274;67063;-30
2022/05/05 00:44:10;;;;;;;4.70;2.40;;;;;;100958.82;;;;107219;1274;65695;-30
2022/05/05 00:46:38;;;;;;;5.00;2.30;;;;;;100961.87;;;;107272;1274;65715;-32
2022/05/05 00:49:06;;;;;;;5.00;2.50;;;;;;100959.34;;;;107214;1274;65674;-28
2022/05/05 00:51:33;;;;;;;5.10;2.10;;;;;;100959.48;;;;107261;1273;65654;-28
2022/05/05 00:54:00;;;;;;;4.90;2.80;;;;;;100958.61;;;;107245;1274;65796;-30
2022/05/05 00:56:31;;;;;;;5.20;2.40;;;;;;100962.29;;;;107152;1274;65954;-30
2022/05/05 00:59:01;;;;;;;5.60;3.00;;;;;;100960.83;;;;107237;1274;65400;-34
2022/05/05 01:01:34;;;;;;;4.80;2.50;;;;;;100958.77;;;;107238;1274;65545;-32
2022/05/05 01:04:02;;;;;;;4.70;2.50;;;;;;100960.23;;;;107296;1274;65671;-29
2022/05/05 01:06:33;;;;;;;4.70;2.20;;;;;;100958.17;;;;107281;1274;67256;-31
2022/05/05 01:09:00;;;;;;;4.80;2.20;;;;;;100961.41;;;;107239;1274;65623;-30
2022/05/05 01:11:30;;;;;;;4.90;2.30;;;;;;100956.73;;;;107235;1274;65560;-30
2022/05/05 01:13:57;;;;;;;6.00;2.30;;;;;;100956.88;;;;107247;1274;65863;-30
2022/05/05 01:16:28;;;;;;;4.50;2.60;;;;;;100956.98;;;;107252;1274;65580;-35
2022/05/05 01:18:58;;;;;;;4.40;2.10;;;;;;100958.98;;;;107222;1274;67277;-29
2022/05/05 01:21:26;;;;;;;4.80;2.50;;;;;;100955.15;;;;107147;1274;65777;-42
2022/05/05 01:23:56;;;;;;;4.50;2.20;;;;;;100952.97;;;;107212;1274;65675;-31
2022/05/05 01:29:11;;;;;;;4.50;2.20;;;;;;100949.94;;;;107232;1274;65729;-43
2022/05/05 01:31:40;;;;;;;4.60;2.30;;;;;;100951.64;;;;107241;1274;67418;-30
2022/05/05 01:34:07;;;;;;;4.90;2.40;;;;;;100956.25;;;;107206;1274;65514;-30
2022/05/05 01:36:37;;;;;;;4.50;1.90;;;;;;100955.35;;;;107267;1274;65652;-29
2022/05/05 01:39:05;;;;;;;4.20;2.20;;;;;;100956.64;;;;107171;1274;65538;-27
2022/05/05 01:41:36;;;;;;;4.50;2.00;;;;;;100958.61;;;;107233;1274;66637;-28
2022/05/05 01:44:06;;;;;;;4.10;1.90;;;;;;100959.12;;;;107168;1274;67288;-29
2022/05/05 01:46:33;;;;;;;4.50;1.90;;;;;;100958.20;;;;107179;1274;65678;-30
2022/05/05 01:49:05;;;;;;;5.40;2.20;;;;;;100954.45;;;;107222;1274;65579;-28
2022/05/05 01:51:32;;;;;;;5.10;2.10;;;;;;100956.23;;;;107214;1274;65691;-31
2022/05/05 01:53:59;;;;;;;4.50;2.10;;;;;;100956.83;;;;107237;1274;65556;-28
2022/05/05 01:56:26;;;;;;;4.80;2.20;;;;;;100957.61;;;;107247;1274;67991;-32
2022/05/05 01:58:57;;;;;;;5.30;2.20;;;;;;100957.11;;;;107194;1274;65653;-29
2022/05/05 02:01:28;;;;;;;4.30;1.90;;;;;;100956.28;;;;107262;1274;65651;-34
2022/05/05 02:04:00;;;;;;;3.90;1.80;;;;;;100959.30;;;;107148;1274;65758;-27
2022/05/05 02:06:28;;;;;;;4.80;2.40;;;;;;100955.94;;;;107250;1274;65614;-27
2022/05/05 02:08:57;;;;;;;4.60;2.30;;;;;;100957.77;;;;107258;1274;66929;-29
2022/05/05 02:11:27;;;;;;;4.50;2.10;;;;;;100955.96;;;;107197;1274;65662;-29
2022/05/05 02:13:57;;;;;;;4.10;2.10;;;;;;100958.70;;;;107231;1274;66346;-30
2022/05/05 02:16:25;;;;;;;4.30;1.90;;;;;;100953.64;;;;107204;1274;65660;-30
2022/05/05 02:18:52;;;;;;;4.30;2.20;;;;;;100953.98;;;;107180;1274;65690;-30
2022/05/05 02:21:23;;;;;;;5.60;2.10;;;;;;100953.33;;;;107251;1274;66791;-29
2022/05/05 02:23:53;;;;;;;4.80;2.30;;;;;;100951.98;;;;107209;1274;66768;-30
2022/05/05 02:26:24;;;;;;;5.00;2.20;;;;;;100950.88;;;;107246;1274;65550;-29
2022/05/05 02:28:51;;;;;;;4.90;2.00;;;;;;100948.07;;;;107229;1273;65577;-28
2022/05/05 02:31:21;;;;;;;3.80;1.70;;;;;;100949.09;;;;107275;1274;65637;-26
2022/05/05 02:33:51;;;;;;;4.60;2.10;;;;;;100943.32;;;;107236;1274;67442;-30
2022/05/05 02:39:07;;;;;;;5.00;2.20;;;;;;100941.77;;;;107231;1274;65698;-28
2022/05/05 02:41:37;;;;;;;4.90;2.10;;;;;;100940.98;;;;107223;1274;65574;-28
2022/05/05 02:44:05;;;;;;;4.80;1.90;;;;;;100944.67;;;;107187;1274;65454;-30
2022/05/05 02:46:35;;;;;;;4.00;2.00;;;;;;100942.43;;;;107203;1274;65686;-30
2022/05/05 02:49:02;;;;;;;4.80;2.10;;;;;;100944.79;;;;107131;1274;65719;-28
2022/05/05 02:51:32;;;;;;;4.10;2.00;;;;;;100944.08;;;;107218;1274;64515;-32
2022/05/05 02:56:48;;;;;;;3.60;1.90;;;;;;100941.33;;;;107247;1274;65560;-28
2022/05/05 02:59:19;;;;;;;4.80;1.90;;;;;;100944.19;;;;107226;1274;67786;-33
2022/05/05 03:01:49;;;;;;;4.60;2.00;;;;;;100945.85;;;;107252;1274;65585;-28
2022/05/05 03:04:17;;;;;;;4.50;1.80;;;;;;100947.91;;;;107251;1274;65662;-30
2022/05/05 03:06:47;;;;;;;3.80;1.70;;;;;;100950.52;;;;107196;1274;65829;-30
2022/05/05 03:09:18;;;;;;;4.20;2.00;;;;;;100953.30;;;;107274;1274;65598;-31
2022/05/05 03:11:45;;;;;;;5.00;2.10;;;;;;100952.30;;;;107256;1274;65750;-30
2022/05/05 03:14:15;;;;;;;4.00;1.90;;;;;;100952.67;;;;107212;1274;65567;-28
2022/05/05 03:16:46;;;;;;;4.40;1.50;;;;;;100949.42;;;;107212;1274;65780;-29
2022/05/05 03:19:17;;;;;;;4.30;1.90;;;;;;100947.67;;;;107206;1274;66255;-29
2022/05/05 03:21:47;;;;;;;4.90;2.00;;;;;;100946.84;;;;107240;1274;65723;-33
2022/05/05 03:24:14;;;;;;;5.40;2.00;;;;;;100947.45;;;;107224;1274;66724;-26
2022/05/05 03:26:42;;;;;;;4.90;2.10;;;;;;100948.71;;;;107227;1274;66022;-28
2022/05/05 03:29:10;;;;;;;4.40;2.10;;;;;;100949.92;;;;107232;1274;65586;-29
2022/05/05 03:31:39;;;;;;;4.40;1.70;;;;;;100952.16;;;;107231;1274;65723;-40
2022/05/05 03:34:07;;;;;;;4.10;1.90;;;;;;100951.30;;;;107240;1274;65806;-26
2022/05/05 03:36:38;;;;;;;3.40;1.60;;;;;;100949.98;;;;107241;1274;66463;-28
2022/05/05 03:39:05;;;;;;;5.30;2.20;;;;;;100950.98;;;;107242;1274;65702;-31
2022/05/05 03:41:35;;;;;;;5.50;2.20;;;;;;100956.12;;;;107221;1274;65835;-30
2022/05/05 03:44:05;;;;;;;4.20;2.00;;;;;;100961.80;;;;107199;1274;65777;-28
2022/05/05 03:46:35;;;;;;;4.60;1.60;;;;;;100960.89;;;;107244;1274;65557;-39
2022/05/05 03:49:03;;;;;;;4.00;1.70;;;;;;100962.85;;;;107217;1274;67349;-29
2022/05/05 03:51:33;;;;;;;4.60;2.10;;;;;;100965.65;;;;107210;1274;65825;-30
2022/05/05 03:54:03;;;;;;;4.40;2.00;;;;;;100964.30;;;;107232;1274;66395;-28
2022/05/05 03:56:30;;;;;;;4.50;1.90;;;;;;100964.67;;;;107240;1274;65810;-29
2022/05/05 03:59:01;;;;;;;5.50;2.00;;;;;;100968.35;;;;107235;1274;65609;-29
2022/05/05 04:01:29;;;;;;;3.50;1.70;;;;;;100967.19;;;;107220;1273;66824;-30
2022/05/05 04:03:59;;;;;;;4.20;2.00;;;;;;100965.39;;;;107223;1274;65675;-28
2022/05/05 04:06:26;;;;;;;4.10;1.60;;;;;;100965.12;;;;107221;1274;65722;-28
2022/05/05 04:08:54;;;;;;;3.50;1.60;;;;;;100966.09;;;;107249;1274;65612;-30
2022/05/05 04:11:24;;;;;;;4.50;2.20;;;;;;100972.04;;;;107204;1274;65593;-30
2022/05/05 04:13:52;;;;;;;4.30;1.80;;;;;;100971.94;;;;107246;1274;66420;-31
2022/05/05 04:16:22;;;;;;;4.10;1.80;;;;;;100971.29;;;;104905;1274;2997661;-28
2022/05/05 04:18:49;;;;;;;4.50;2.00;;;;;;100967.30;;;;107213;1274;65645;-26
2022/05/05 04:21:16;;;;;;;3.50;1.50;;;;;;100966.77;;;;107223;1274;65726;-28
2022/05/05 04:23:44;;;;;;;4.30;1.80;;;;;;100969.04;;;;107242;1274;66112;-29
2022/05/05 04:26:15;;;;;;;3.70;1.60;;;;;;100965.64;;;;107149;1274;67704;-31
2022/05/05 04:28:45;;;;;;;4.10;1.90;;;;;;100964.95;;;;107154;1274;65672;-28
2022/05/05 04:31:15;;;;;;;4.30;1.70;;;;;;100972.73;;;;107223;1274;66856;-28
2022/05/05 04:33:43;;;;;;;4.30;2.00;;;;;;100974.15;;;;107224;1274;65693;-28
2022/05/05 04:36:14;;;;;;;5.30;2.20;;;;;;100972.68;;;;107232;1274;65636;-26
2022/05/05 04:38:42;;;;;;;4.00;1.70;;;;;;100969.73;;;;107260;1274;67068;-28
2022/05/05 04:41:09;;;;;;;4.80;1.80;;;;;;100970.82;;;;107222;1274;65662;-27
2022/05/05 04:43:37;;;;;;;4.70;2.10;;;;;;100974.15;;;;107256;1274;65671;-28
2022/05/05 04:46:07;;;;;;;3.90;2.00;;;;;;100968.36;;;;107224;1274;65735;-27
2022/05/05 04:48:34;;;;;;;4.70;1.80;;;;;;100971.77;;;;107284;1274;65571;-28
2022/05/05 04:51:02;;;;;;;5.50;1.90;;;;;;100969.98;;;;107220;1274;65809;-29
2022/05/05 04:53:29;;;;;;;3.90;1.80;;;;;;100971.25;;;;107211;1274;65571;-30
2022/05/05 04:56:00;;;;;;;4.50;1.90;;;;;;100969.08;;;;107180;1274;65667;-29
2022/05/05 04:58:27;;;;;;;4.40;1.90;;;;;;100971.23;;;;107137;1273;65658;-30
2022/05/05 05:00:54;;;;;;;4.70;2.20;;;;;;100967.98;;;;107258;1274;65659;-40
2022/05/05 05:03:39;;;;;;;3.40;1.80;;;;;;100973.05;;;;107259;1274;66821;-38
2022/05/05 05:06:09;;;;;;;3.90;1.90;;;;;;100975.65;;;;107256;1274;65801;-28
2022/05/05 05:08:38;;;;;;;3.80;1.80;;;;;;100979.42;;;;107276;1274;65646;-28
2022/05/05 05:11:06;;;;;;;6.50;2.10;;;;;;100983.20;;;;107255;1274;65545;-27
2022/05/05 05:13:33;;;;;;;5.10;1.80;;;;;;100984.23;;;;107255;1274;65640;-35
2022/05/05 05:16:01;;;;;;;4.10;2.00;;;;;;100980.69;;;;107145;1274;65764;-30
2022/05/05 05:18:31;;;;;;;4.20;1.90;;;;;;100984.01;;;;107252;1274;65592;-28
2022/05/05 05:20:58;;;;;;;4.30;2.00;;;;;;100982.05;;;;107231;1274;65634;-28
2022/05/05 05:23:25;;;;;;;4.10;2.10;;;;;;100981.84;;;;107202;1274;65694;-31
2022/05/05 05:25:52;;;;;;;5.00;1.90;;;;;;100984.98;;;;107230;1274;66034;-30
2022/05/05 05:28:19;;;;;;;5.10;2.30;;;;;;100979.79;;;;107230;1274;66706;-40
2022/05/05 05:30:46;;;;;;;5.40;2.00;;;;;;100980.64;;;;107209;1274;65868;-31
2022/05/05 05:33:17;;;;;;;6.70;2.30;;;;;;100982.00;;;;107235;1274;65566;-28
2022/05/05 05:35:47;;;;;;;4.50;1.90;;;;;;100986.88;;;;107204;1274;65787;-29
2022/05/05 05:38:18;;;;;;;4.30;1.90;;;;;;100987.42;;;;107251;1274;65693;-28
2022/05/05 05:40:48;;;;;;;5.00;2.30;;;;;;100985.19;;;;107241;1274;66780;-28
2022/05/05 05:43:16;;;;;;;5.80;2.40;;;;;;100984.28;;;;107232;1274;65603;-29
2022/05/05 05:45:43;;;;;;;4.20;2.00;;;;;;100988.09;;;;107178;1274;65842;-29
2022/05/05 05:48:11;;;;;;;5.80;2.20;;;;;;100988.33;;;;107118;1274;65669;-30
2022/05/05 05:50:38;;;;;;;4.20;2.20;;;;;;100988.70;;;;107277;1274;65590;-30
2022/05/05 05:53:08;;;;;;;5.20;2.30;;;;;;100989.45;;;;107232;1274;66976;-29
2022/05/05 05:55:35;;;;;;;4.80;2.00;;;;;;100985.39;;;;107216;1274;65767;-38
2022/05/05 05:58:06;;;;;;;4.60;2.20;;;;;;100985.46;;;;107211;1274;65649;-28
2022/05/05 06:00:33;;;;;;;4.80;2.30;;;;;;100982.20;;;;107237;1274;65686;-28
2022/05/05 06:05:47;;;;;;;4.90;2.30;;;;;;100983.39;;;;107231;1274;67273;-39
2022/05/05 06:08:17;;;;;;;4.40;2.10;;;;;;100983.38;;;;107219;1274;65576;-35
2022/05/05 06:10:45;;;;;;;4.30;2.20;;;;;;100980.88;;;;107258;1274;65650;-28
2022/05/05 06:13:13;;;;;;;4.70;2.30;;;;;;100981.25;;;;107188;1274;65680;-29
2022/05/05 06:15:43;;;;;;;5.40;2.30;;;;;;100982.22;;;;107181;1274;65700;-32
2022/05/05 06:18:13;;;;;;;5.50;2.40;;;;;;100985.98;;;;107263;1274;65832;-28
2022/05/05 06:20:40;;;;;;;5.00;2.10;;;;;;100986.71;;;;107209;1274;66334;-28
2022/05/05 06:23:10;;;;;;;4.70;2.00;;;;;;100986.52;;;;107221;1274;65550;-34
2022/05/05 06:25:39;;;;;;;6.30;2.10;;;;;;100988.69;;;;107259;1274;65672;-30
2022/05/05 06:28:09;;;;;;;5.50;2.00;;;;;;100984.73;;;;107268;1274;65585;-31
2022/05/05 06:30:37;;;;;;;5.60;2.10;;;;;;100985.51;;;;107255;1274;67815;-29
2022/05/05 06:33:07;;;;;;;5.20;2.20;;;;;;100984.54;;;;107220;1274;65707;-29
2022/05/05 06:35:36;;;;;;;4.50;2.10;;;;;;100984.58;;;;107250;1274;65627;-33
2022/05/05 06:38:07;;;;;;;7.40;2.20;;;;;;100987.06;;;;107206;1274;65589;-28
2022/05/05 06:40:34;;;;;;;4.80;2.00;;;;;;100987.27;;;;107170;1274;65503;-28
2022/05/05 06:43:02;;;;;;;5.30;2.40;;;;;;100987.25;;;;107243;1274;67288;-28
2022/05/05 06:45:30;;;;;;;3.90;2.00;;;;;;100986.52;;;;107239;1274;65806;-28
2022/05/05 06:47:58;;;;;;;6.90;2.30;;;;;;100986.52;;;;107216;1274;66834;-29
2022/05/05 06:50:26;;;;;;;6.80;2.40;;;;;;100992.38;;;;107199;1274;65714;-30
2022/05/05 06:53:00;;;;;;;5.50;2.40;;;;;;100988.48;;;;107228;1274;65583;-27
2022/05/05 06:55:30;;;;;;;5.00;2.10;;;;;;100992.39;;;;107252;1274;68080;-28
2022/05/05 06:57:57;;;;;;;5.80;2.20;;;;;;100995.48;;;;107222;1274;65601;-28
2022/05/05 07:01:51;;;;;;;5.70;2.30;;;;;;100999.45;;;;107224;1274;65661;-46
2022/05/05 07:03:15;;;;;;;5.20;2.20;;;;;;101001.06;;;;107161;1274;65716;-34
2022/05/05 07:05:42;;;;;;;5.70;2.30;;;;;;101002.77;;;;107223;1274;65797;-28
2022/05/05 07:08:12;;;;;;;6.00;2.00;;;;;;101006.98;;;;107246;1274;65944;-30
2022/05/05 07:10:55;;;;;;;5.70;2.30;;;;;;101002.01;;;;107224;1274;65606;-32
2022/05/05 07:13:26;;;;;;;6.00;2.30;;;;;;101001.58;;;;107243;1274;65642;-30
2022/05/05 07:15:53;;;;;;;5.60;2.50;;;;;;100998.86;;;;107222;1274;65564;-30
2022/05/05 07:18:20;;;;;;;5.50;2.30;;;;;;101000.52;;;;107237;1274;65768;-29
2022/05/05 07:20:51;;;;;;;5.80;2.30;;;;;;100996.31;;;;107234;1275;67001;-28
2022/05/05 07:23:18;;;;;;;4.80;2.10;;;;;;100990.63;;;;107131;1275;65794;-29
2022/05/05 07:25:45;;;;;;;6.00;2.40;;;;;;100987.30;;;;107168;1275;65614;-37
2022/05/05 07:28:15;;;;;;;6.50;2.40;;;;;;100991.37;;;;107156;1275;65588;-29
2022/05/05 07:30:42;;;;;;;5.70;2.50;;;;;;100988.89;;;;107197;1275;65739;-28
2022/05/05 07:33:09;;;;;;;5.80;2.30;;;;;;100991.13;;;;107160;1274;68633;-47
2022/05/05 07:35:40;;;;;;;5.80;2.60;;;;;;100991.23;;;;107182;1273;65591;-27
2022/05/05 07:38:07;;;;;;;5.70;2.60;;;;;;100991.41;;;;107199;1274;65669;-30
2022/05/05 07:40:35;;;;;;;4.90;2.50;;;;;;100993.17;;;;107214;1274;65695;-30
2022/05/05 07:43:02;;;;;;;6.40;2.30;;;;;;100989.69;;;;107223;1274;65699;-28
2022/05/05 07:45:29;;;;;;;4.90;2.50;;;;;;100987.29;;;;107238;1274;68210;-28
2022/05/05 07:48:00;;;;;;;5.20;2.30;;;;;;100986.05;;;;107217;1274;65468;-30
2022/05/05 07:50:28;;;;;;;5.90;2.40;;;;;;100984.91;;;;107227;1274;65586;-29
2022/05/05 07:52:55;;;;;;;6.20;2.50;;;;;;100983.86;;;;107126;1274;65566;-30
2022/05/05 07:55:22;;;;;;;6.40;3.20;;;;;;100983.84;;;;107133;1277;66005;-29
2022/05/05 07:57:49;;;;;;;6.70;2.60;;;;;;100982.27;;;;107213;1275;67758;-30
2022/05/05 08:00:17;;;;;;;5.80;2.40;;;;;;100984.10;;;;107173;1274;65675;-30
2022/05/05 08:02:44;;;;;;;6.20;2.50;;;;;;100983.59;;;;107213;1274;65506;-28
2022/05/05 08:05:12;;;;;;;5.50;2.60;;;;;;100985.36;;;;107225;1274;65667;-32
2022/05/05 08:07:43;;;;;;;5.20;2.30;;;;;;100982.40;;;;107300;1274;65441;-30
2022/05/05 08:10:10;;;;;;;5.50;2.20;;;;;;100982.82;;;;107240;1273;65651;-34
2022/05/05 08:12:38;;;;;;;6.40;2.50;;;;;;100980.84;;;;107227;1274;65670;-48
2022/05/05 08:15:07;;;;;;;6.20;2.40;;;;;;100980.55;;;;107136;1275;65704;-34
2022/05/05 08:17:34;;;;;;;4.30;2.20;;;;;;100982.27;;;;107238;1274;65729;-32
2022/05/05 08:20:07;;;;;;;4.70;2.10;;;;;;100979.77;;;;107239;1274;65746;-36
2022/05/05 08:22:34;;;;;;;4.90;2.00;;;;;;100980.58;;;;107261;1274;65617;-28
2022/05/05 08:30:35;;;;;;;4.30;2.20;;;;;;100980.21;;;;107221;1274;65655;-27
2022/05/05 08:33:02;;;;;;;4.40;1.90;;;;;;100974.74;;;;107241;1274;65582;-30
2022/05/05 08:35:30;;;;;;;5.20;2.40;;;;;;100972.42;;;;107212;1275;67640;-33
2022/05/05 08:37:57;;;;;;;4.80;2.20;;;;;;100973.42;;;;107228;1274;65682;-31
2022/05/05 08:40:27;;;;;;;5.60;2.40;;;;;;100971.69;;;;107142;1274;65575;-30
2022/05/05 08:42:55;;;;;;;4.90;2.20;;;;;;100969.04;;;;107240;1274;65653;-28
2022/05/05 08:45:22;;;;;;;5.40;2.20;;;;;;100969.86;;;;107277;1274;65582;-29
2022/05/05 08:47:54;;;;;;;6.00;2.50;;;;;;100971.32;;;;107264;1274;65700;-33
2022/05/05 08:50:24;;;;;;;4.70;2.30;;;;;;100977.77;;;;107252;1274;65638;-32
2022/05/05 08:52:52;;;;;;;6.70;2.40;;;;;;100977.20;;;;107044;1275;65552;-33
2022/05/05 08:55:21;;;;;;;5.30;2.50;;;;;;100973.59;;;;107203;1274;65434;-30
2022/05/05 08:57:48;;;;;;;5.70;2.40;;;;;;100978.48;;;;107284;1274;65669;-30
2022/05/05 09:00:17;;;;;;;5.50;2.50;;;;;;100980.27;;;;107259;1274;66691;-32
2022/05/05 09:02:44;;;;;;;6.90;2.70;;;;;;100980.39;;;;107256;1274;65384;-29
2022/05/05 09:05:12;;;;;;;5.80;2.80;;;;;;100968.60;;;;107245;1274;65579;-29
2022/05/05 09:07:50;;;;;;;5.30;2.80;;;;;;100967.14;;;;107224;1274;65755;-27
2022/05/05 09:10:21;;;;;;;5.60;2.70;;;;;;100961.01;;;;107177;1275;65599;-29
2022/05/05 09:13:01;;;;;;;6.20;2.90;;;;;;100963.73;;;;107254;1274;67315;-31
2022/05/05 09:15:34;;;;;;;5.80;2.50;;;;;;100963.73;;;;107223;1274;65700;-30
2022/05/05 09:18:13;;;;;;;5.10;2.30;;;;;;100961.07;;;;107254;1274;65691;-29
2022/05/05 09:20:43;;;;;;;5.70;2.70;;;;;;100961.44;;;;107230;1274;65804;-31
2022/05/05 09:23:37;;;;;;;4.60;2.40;;;;;;100960.73;;;;107261;1274;65670;-31
2022/05/05 09:26:06;;;;;;;6.10;2.80;;;;;;100962.91;;;;107257;1274;68019;-29
2022/05/05 09:28:37;;;;;;;6.40;3.70;;;;;;100960.48;;;;107240;1274;65658;-31
2022/05/05 09:31:09;;;;;;;5.10;2.90;;;;;;100963.57;;;;107207;1274;65551;-31
2022/05/05 09:33:42;;;;;;;7.10;2.80;;;;;;100956.95;;;;107198;1274;65563;-32
2022/05/05 09:36:13;;;;;;;5.30;3.30;;;;;;100960.45;;;;107266;1274;65615;-31
2022/05/05 09:39:04;;;;;;;6.60;2.90;;;;;;100954.61;;;;107267;1274;67029;-32
2022/05/05 09:41:34;;;;;;;4.90;2.40;;;;;;100956.44;;;;107200;1274;65662;-31
2022/05/05 09:44:16;;;;;;;4.70;2.60;;;;;;100954.58;;;;107231;1274;64389;-27
2022/05/05 09:46:43;;;;;;;6.70;2.40;;;;;;100947.16;;;;107210;1274;65531;-33
2022/05/05 09:49:20;;;;;;;6.40;2.60;;;;;;100943.48;;;;107264;1274;65521;-33
2022/05/05 09:57:41;;;;;;;6.20;2.70;;;;;;100942.25;;;;107218;1274;64417;-31
2022/05/05 10:05:51;;;;;;;6.80;2.60;;;;;;100941.77;;;;107169;1274;68203;-29
2022/05/05 10:08:48;;;;;;;5.10;2.50;;;;;;100937.70;;;;107145;1274;65595;-29
2022/05/05 10:11:16;;;;;;;4.80;2.60;;;;;;100938.73;;;;107140;1273;65580;-31
2022/05/05 10:13:45;;;;;;;6.00;2.70;;;;;;100934.80;;;;107155;1274;65564;-34
2022/05/05 10:16:16;;;;;;;5.70;2.70;;;;;;100936.35;;;;107163;1274;65905;-32
2022/05/05 10:18:43;;;;;;;5.20;2.20;;;;;;100933.56;;;;107169;1274;67720;-32
2022/05/05 10:21:22;;;;;;;5.00;2.50;;;;;;100931.46;;;;107183;1274;65592;-33
2022/05/05 10:24:12;;;;;;;4.90;2.40;;;;;;100930.30;;;;107164;1274;65981;-31
2022/05/05 10:26:39;;;;;;;5.20;2.60;;;;;;100930.39;;;;107142;1274;65672;-30
2022/05/05 10:29:31;;;;;;;5.30;2.50;;;;;;100926.81;;;;107174;1274;65535;-30
2022/05/05 10:32:22;;;;;;;6.10;2.40;;;;;;100927.55;;;;107176;1274;67052;-31
2022/05/05 10:35:02;;;;;;;4.10;2.20;;;;;;100912.20;;;;107160;1274;65677;-29
2022/05/05 10:37:37;;;;;;;6.50;2.60;;;;;;100918.16;;;;107224;1274;65569;-31
2022/05/05 10:40:09;;;;;;;5.20;2.60;;;;;;100910.27;;;;107211;1274;65807;-29
2022/05/05 10:42:44;;;;;;;6.50;2.30;;;;;;100909.46;;;;107252;1274;65791;-30
2022/05/05 10:45:33;;;;;;;5.40;2.70;;;;;;100908.24;;;;107200;1274;68352;-32
2022/05/05 10:48:04;;;;;;;8.50;2.70;;;;;;100915.16;;;;107105;1275;64414;-29
2022/05/05 10:50:56;;;;;;;5.40;2.60;;;;;;100915.46;;;;107203;1274;65586;-28
2022/05/05 10:53:36;;;;;;;6.30;3.10;;;;;;100910.85;;;;107207;1274;65748;-28
2022/05/05 10:56:25;;;;;;;4.70;2.60;;;;;;100906.95;;;;107257;1274;65715;-29
2022/05/05 10:59:08;;;;;;;7.30;2.80;;;;;;100905.65;;;;107244;1273;67777;-42
2022/05/05 11:01:42;;;;;;;5.70;2.80;;;;;;100906.78;;;;107238;1274;65695;-33
2022/05/05 11:04:12;;;;;;;4.80;2.60;;;;;;100904.70;;;;107208;1273;65680;-32
2022/05/05 11:06:40;;;;;;;5.10;2.60;;;;;;100901.55;;;;107208;1274;66268;-32
2022/05/05 11:09:07;;;;;;;5.80;2.70;;;;;;100901.05;;;;107263;1274;65674;-32
2022/05/05 11:11:41;;;;;;;4.90;2.70;;;;;;100898.06;;;;107147;1274;65706;-32
2022/05/05 11:23:09;;;;;;;4.80;2.60;;;;;;100907.16;;;;107254;1274;66253;-32
2022/05/05 11:25:43;;;;;;;6.20;2.80;;;;;;100906.66;;;;107210;1274;67805;-32
2022/05/05 11:28:11;;;;;;;6.00;2.90;;;;;;100908.13;;;;107264;1274;65496;-37
2022/05/05 11:30:42;;;;;;;5.70;3.00;;;;;;100904.30;;;;107220;1274;65691;-28
2022/05/05 11:33:09;;;;;;;5.80;2.90;;;;;;100906.94;;;;107240;1274;65499;-39
2022/05/05 11:35:36;;;;;;;5.90;3.30;;;;;;100905.20;;;;107031;1274;65666;-32
2022/05/05 11:38:09;;;;;;;5.80;2.90;;;;;;100906.20;;;;107256;1274;66357;-32
2022/05/05 11:40:37;;;;;;;5.70;2.70;;;;;;100901.74;;;;107153;1274;65739;-32
2022/05/05 11:45:59;;;;;;;5.90;2.90;;;;;;100897.15;;;;107131;1274;65629;-33
2022/05/05 11:48:26;;;;;;;6.40;3.00;;;;;;100892.82;;;;107167;1274;65850;-27
2022/05/05 11:50:53;;;;;;;5.60;3.00;;;;;;100897.49;;;;107261;1274;67290;-28
2022/05/05 11:53:22;;;;;;;4.90;2.80;;;;;;100891.48;;;;107245;1274;65598;-32
2022/05/05 11:55:52;;;;;;;7.30;2.90;;;;;;100890.02;;;;107239;1274;65565;-32
2022/05/05 12:04:02;;;;;;;5.70;3.00;;;;;;100880.77;;;;107194;1274;69583;-29
2022/05/05 12:06:30;;;;;;;5.40;2.90;;;;;;100878.11;;;;107223;1274;65579;-28
2022/05/05 12:08:59;;;;;;;5.10;2.70;;;;;;100872.24;;;;107197;1274;65621;-32
2022/05/05 12:11:29;;;;;;;5.00;3.00;;;;;;100874.65;;;;107271;1274;65717;-32
2022/05/05 12:14:07;;;;;;;5.00;3.00;;;;;;100870.14;;;;107158;1274;65681;-28
2022/05/05 12:16:38;;;;;;;5.90;3.10;;;;;;100864.81;;;;107123;1274;185194;-28
2022/05/05 12:19:17;;;;;;;5.20;2.60;;;;;;100863.20;;;;107231;1274;65996;-27
2022/05/05 12:21:57;;;;;;;4.70;3.00;;;;;;100863.61;;;;107238;1274;65694;-27
2022/05/05 12:24:27;;;;;;;5.50;2.90;;;;;;100859.53;;;;107248;1274;65540;-32
2022/05/05 12:27:08;;;;;;;5.60;3.00;;;;;;100853.20;;;;107219;1274;65633;-32
2022/05/05 12:29:44;;;;;;;5.10;2.80;;;;;;100857.64;;;;107223;1274;68706;-32
2022/05/05 12:32:15;;;;;;;4.40;2.60;;;;;;100853.05;;;;107216;1274;65652;-28
2022/05/05 12:34:44;;;;;;;5.90;3.20;;;;;;100845.96;;;;107242;1274;65717;-28
2022/05/05 12:37:19;;;;;;;5.10;2.70;;;;;;100846.08;;;;107214;1274;66016;-27
2022/05/05 12:40:07;;;;;;;4.60;2.70;;;;;;100838.30;;;;107164;1274;65627;-28
2022/05/05 12:42:51;;;;;;;4.90;2.80;;;;;;100837.21;;;;107249;1274;67680;-32
2022/05/05 12:45:29;;;;;;;;;;;;;;100836.87;;;;107238;1273;65690;-28
2022/05/05 12:48:00;;;;;;;5.50;2.70;;;;;;100836.52;;;;107214;1274;65560;-32
2022/05/05 12:50:37;;;;;;;5.40;2.90;;;;;;100834.00;;;;107209;1274;65603;-32
2022/05/05 13:01:36;;;;;;;6.30;2.80;;;;;;100814.94;;;;107246;1274;65553;-29
2022/05/05 13:04:08;;;;;;;5.20;2.80;;;;;;100816.38;;;;107227;1274;65685;-29
2022/05/05 13:06:37;;;;;;;5.30;2.90;;;;;;100815.30;;;;107164;1274;66738;-28
2022/05/05 13:09:08;;;;;;;6.10;3.10;;;;;;100809.61;;;;107174;1274;66832;-33
2022/05/05 13:11:46;;;;;;;5.70;2.70;;;;;;100808.27;;;;107221;1274;65602;-32
2022/05/05 13:14:15;;;;;;;6.30;3.00;;;;;;100808.36;;;;107156;1274;65583;-27
2022/05/05 13:19:14;;;;;;;4.50;3.00;;;;;;100807.80;;;;107171;1275;65730;-32
2022/05/05 13:21:41;;;;;;;5.90;2.90;;;;;;100799.01;;;;107157;1277;65604;-33
2022/05/05 13:24:10;;;;;;;5.50;2.80;;;;;;100801.66;;;;107069;1276;65602;-33
2022/05/05 13:26:40;;;;;;;5.00;2.90;;;;;;100806.30;;;;107100;1274;65582;-38
2022/05/05 13:29:08;;;;;;;4.80;2.80;;;;;;100805.77;;;;107165;1274;65694;-28
2022/05/05 13:31:35;;;;;;;4.70;3.10;;;;;;100801.83;;;;107108;1276;65646;-28
2022/05/05 13:34:03;;;;;;;5.80;2.90;;;;;;100805.40;;;;107070;1276;66790;-31
2022/05/05 13:36:31;;;;;;;4.30;2.80;;;;;;100808.06;;;;107092;1277;65613;-30
2022/05/05 13:38:59;;;;;;;4.90;2.80;;;;;;100802.79;;;;107133;1274;65681;-32
2022/05/05 13:41:26;;;;;;;4.60;2.90;;;;;;100798.55;;;;107108;1275;65583;-32
2022/05/05 13:43:53;;;;;;;4.50;3.00;;;;;;100796.29;;;;107131;1276;65691;-32
2022/05/05 13:46:20;;;;;;;5.20;3.10;;;;;;100798.64;;;;107123;1276;66971;-32
2022/05/05 13:48:49;;;;;;;4.60;2.80;;;;;;100803.75;;;;107111;1274;65688;-32
2022/05/05 13:51:16;;;;;;;4.30;2.90;;;;;;100795.20;;;;107127;1276;65604;-33
2022/05/05 13:53:43;;;;;;;5.30;2.70;;;;;;100790.57;;;;107098;1276;65826;-28
2022/05/05 13:56:12;;;;;;;4.70;3.00;;;;;;100785.58;;;;107143;1276;65461;-28
2022/05/05 13:58:40;;;;;;;5.70;3.10;;;;;;100795.56;;;;107171;1274;67554;-32
2022/05/05 14:01:07;;;;;;;4.80;3.10;;;;;;100796.12;;;;107113;1277;65683;-31
2022/05/05 14:03:34;;;;;;;5.40;3.20;;;;;;100796.30;;;;107099;1274;65655;-27
2022/05/05 14:06:02;;;;;;;4.30;3.00;;;;;;100790.11;;;;107078;1275;65713;-28